Time;durP1;ratioP1;P1;durP2;ratioP2;P2;SDS_P1;SDS_P2;PMS_P1;PMS_P2;Temp;Humidity;BMP_temperature;BMP_pressure;BME280_temperature;BME280_humidity;BME280_pressure;Samples;Min_cycle;Max_cycle;Signal;HPM_P1;HPM_P2
2022/11/30 00:00:57;;;;;;;36.03;20.45;;;;;;;11.04;71.70;100776.56;5136783;27;20046;-63
2022/11/30 00:03:25;;;;;;;36.22;20.95;;;;;;;10.98;71.61;100780.59;5156769;27;20054;-63
2022/11/30 00:05:52;;;;;;;44.60;23.00;;;;;;;10.98;71.46;100775.03;5156181;27;20065;-63
2022/11/30 00:08:20;;;;;;;38.00;22.00;;;;;;;11.05;71.21;100775.47;5153440;27;20051;-63
2022/11/30 00:10:47;;;;;;;40.60;22.73;;;;;;;11.07;71.53;100766.78;5152770;27;20054;-64
2022/11/30 00:13:22;;;;;;;37.55;21.42;;;;;;;11.09;71.34;100773.69;5156509;27;20061;-63
2022/11/30 00:15:49;;;;;;;37.20;21.58;;;;;;;11.10;70.95;100782.88;5141579;27;20047;-63
2022/11/30 00:18:18;;;;;;;40.45;22.15;;;;;;;11.13;71.08;100774.72;5135472;27;20413;-63
2022/11/30 00:20:49;;;;;;;37.35;20.20;;;;;;;11.12;71.15;100775.84;5135093;27;20054;-63
2022/11/30 00:23:16;;;;;;;41.53;22.42;;;;;;;11.16;71.02;100776.06;5154883;27;20050;-63
2022/11/30 00:25:43;;;;;;;44.97;23.80;;;;;;;11.17;71.04;100772.13;5156083;27;20047;-63
2022/11/30 00:28:10;;;;;;;43.42;22.05;;;;;;;11.14;70.89;100784.72;5155720;27;20511;-63
2022/11/30 00:30:38;;;;;;;44.55;23.27;;;;;;;11.13;70.79;100780.31;5148173;27;20047;-63
2022/11/30 00:33:05;;;;;;;37.92;21.85;;;;;;;11.14;70.96;100772.75;5155441;27;20053;-63
2022/11/30 00:35:34;;;;;;;51.38;24.98;;;;;;;11.09;70.64;100782.06;5155640;27;20050;-63
2022/11/30 00:38:02;;;;;;;49.03;23.90;;;;;;;10.96;70.84;100777.28;5155596;27;20073;-63
2022/11/30 00:40:29;;;;;;;47.75;24.98;;;;;;;11.00;70.97;100777.50;5153999;27;20054;-63
2022/11/30 00:42:56;;;;;;;43.33;23.05;;;;;;;11.01;71.19;100774.44;5155319;27;20051;-63
2022/11/30 00:45:23;;;;;;;51.58;25.27;;;;;;;11.00;71.31;100767.19;5155271;27;20057;-63
2022/11/30 00:47:51;;;;;;;48.13;24.52;;;;;;;10.91;71.22;100778.22;5155177;27;20054;-63
2022/11/30 00:50:23;;;;;;;43.70;23.25;;;;;;;10.87;71.63;100774.41;5153973;27;20046;-63
2022/11/30 00:52:52;;;;;;;57.20;26.60;;;;;;;10.93;71.13;100778.75;5155072;27;20054;-64
2022/11/30 00:55:19;;;;;;;50.70;24.00;;;;;;;10.91;71.13;100777.41;5155195;27;20057;-63
2022/11/30 00:57:46;;;;;;;50.85;25.38;;;;;;;10.82;71.34;100776.50;5142710;27;20047;-63
2022/11/30 01:00:14;;;;;;;58.47;27.88;;;;;;;10.76;71.81;100773.78;5132795;27;20471;-64
2022/11/30 01:02:41;;;;;;;50.35;24.98;;;;;;;10.79;72.11;100763.16;5155257;27;20054;-64
2022/11/30 01:05:11;;;;;;;48.13;24.30;;;;;;;10.86;72.14;100763.59;5154212;27;20051;-63
2022/11/30 01:07:39;;;;;;;47.60;25.23;;;;;;;10.89;71.95;100772.13;5154927;27;20058;-63
2022/11/30 01:10:09;;;;;;;54.47;27.38;;;;;;;10.87;72.08;100768.84;5154317;27;20058;-64
2022/11/30 01:12:38;;;;;;;47.88;24.20;;;;;;;10.93;72.09;100773.19;5154463;27;20046;-63
2022/11/30 01:15:06;;;;;;;59.60;28.80;;;;;;;10.84;72.04;100780.63;5154612;27;20057;-63
2022/11/30 01:17:33;;;;;;;51.03;25.67;;;;;;;10.87;72.26;100779.97;5134775;27;20070;-63
2022/11/30 01:20:02;;;;;;;58.20;28.67;;;;;;;10.86;71.67;100778.34;5133830;27;20499;-63
2022/11/30 01:22:30;;;;;;;56.60;27.73;;;;;;;10.83;72.30;100778.94;5152993;27;20062;-63
2022/11/30 01:24:57;;;;;;;56.92;29.33;;;;;;;10.85;71.54;100785.03;5154761;27;20050;-63
2022/11/30 01:27:26;;;;;;;68.80;28.88;;;;;;;10.82;72.04;100779.28;5155088;27;20047;-64
2022/11/30 01:29:53;;;;;;;60.58;27.60;;;;;;;10.75;72.21;100794.44;5151097;27;20050;-64
2022/11/30 01:32:20;;;;;;;64.65;28.80;;;;;;;10.62;72.23;100789.66;5151700;27;20513;-64
2022/11/30 01:34:51;;;;;;;56.30;26.92;;;;;;;10.54;72.52;100794.00;5154318;27;20050;-63
2022/11/30 01:37:18;;;;;;;75.50;31.10;;;;;;;10.58;72.60;100791.41;5154814;27;20055;-63
2022/11/30 01:39:45;;;;;;;62.35;26.88;;;;;;;10.66;72.73;100785.13;5153893;27;20054;-64
2022/11/30 01:42:15;;;;;;;61.15;28.75;;;;;;;10.69;72.83;100784.53;5154105;27;20383;-63
2022/11/30 01:44:55;;;;;;;58.53;29.40;;;;;;;10.75;72.54;100782.44;5154224;27;20051;-64
2022/11/30 01:47:28;;;;;;;71.82;30.25;;;;;;;10.71;72.72;100781.44;5154125;27;20046;-63
2022/11/30 01:50:04;;;;;;;66.65;30.15;;;;;;;10.76;73.38;100795.25;5152485;27;20047;-63
2022/11/30 01:52:35;;;;;;;55.80;27.38;;;;;;;10.82;72.98;100782.06;5153997;27;20050;-63
2022/11/30 01:55:09;;;;;;;76.07;30.50;;;;;;;10.80;72.59;100785.16;5154005;27;20062;-63
2022/11/30 01:57:40;;;;;;;80.90;29.58;;;;;;;10.76;73.00;100789.69;5142922;27;20062;-63
2022/11/30 02:00:15;;;;;;;78.55;31.90;;;;;;;10.69;72.94;100790.09;5133350;27;20051;-63
2022/11/30 02:02:50;;;;;;;63.03;28.23;;;;;;;10.75;73.05;100799.16;5154490;27;20046;-64
2022/11/30 02:05:18;;;;;;;65.63;29.27;;;;;;;10.82;73.15;100790.44;5153863;27;20042;-63
2022/11/30 02:07:49;;;;;;;66.97;30.63;;;;;;;10.86;72.99;100799.81;5154756;27;20060;-64
2022/11/30 02:10:18;;;;;;;76.80;32.35;;;;;;;10.86;73.26;100783.09;5117877;27;20059;-63
2022/11/30 02:13:13;;;;;;;71.25;30.02;;;;;;;10.86;73.06;100789.50;5153986;27;20061;-64
2022/11/30 02:15:54;;;;;;;69.00;30.52;;;;;;;10.92;73.08;100782.69;5154106;27;20047;-63
2022/11/30 02:18:27;;;;;;;90.32;33.28;;;;;;;10.91;72.94;100783.00;5153500;27;20046;-63
2022/11/30 02:21:06;;;;;;;62.83;28.45;;;;;;;10.87;73.10;100781.94;5151778;27;20050;-64
2022/11/30 02:24:00;;;;;;;57.33;27.95;;;;;;;10.93;72.44;100778.75;5153752;27;20047;-64
2022/11/30 02:26:47;;;;;;;60.20;27.83;;;;;;;10.99;72.71;100782.28;5154177;27;20055;-63
2022/11/30 02:29:21;;;;;;;59.75;28.45;;;;;;;10.94;72.60;100777.63;5148939;27;20062;-64
2022/11/30 02:31:55;;;;;;;52.58;25.17;;;;;;;10.98;72.46;100777.81;5153767;27;20054;-63
2022/11/30 02:34:26;;;;;;;55.92;26.55;;;;;;;10.98;72.64;100775.03;5153647;27;20053;-64
2022/11/30 02:36:55;;;;;;;50.60;24.90;;;;;;;11.02;72.49;100775.25;5154031;27;20050;-64
2022/11/30 02:39:22;;;;;;;46.75;23.92;;;;;;;11.02;72.13;100767.69;5151515;27;20062;-63
2022/11/30 02:41:50;;;;;;;48.47;24.75;;;;;;;10.97;72.35;100771.41;5153701;27;20046;-63
2022/11/30 02:44:21;;;;;;;38.72;20.98;;;;;;;10.99;72.49;100771.13;5153149;27;20058;-63
2022/11/30 02:46:59;;;;;;;39.10;21.40;;;;;;;11.06;72.35;100767.91;5153241;27;20039;-64
2022/11/30 02:49:33;;;;;;;33.55;20.13;;;;;;;11.05;72.53;100769.06;5151737;27;20497;-64
2022/11/30 02:52:01;;;;;;;38.20;20.73;;;;;;;11.06;72.51;100771.53;5153495;27;20055;-64
2022/11/30 02:54:29;;;;;;;36.83;20.38;;;;;;;11.06;72.13;100770.69;5153719;27;20411;-63
2022/11/30 02:56:57;;;;;;;37.17;20.52;;;;;;;11.07;71.98;100766.78;5147682;27;20043;-64
2022/11/30 02:59:26;;;;;;;32.65;19.40;;;;;;;11.06;72.11;100773.50;5137845;27;20053;-64
2022/11/30 03:01:53;;;;;;;33.03;19.50;;;;;;;11.07;72.09;100778.75;5153796;27;20062;-63
2022/11/30 03:04:26;;;;;;;34.50;19.48;;;;;;;11.05;72.01;100775.47;5153667;27;20050;-63
2022/11/30 03:06:53;;;;;;;35.28;18.73;;;;;;;11.05;72.01;100775.47;5153719;27;20463;-63
2022/11/30 03:09:26;;;;;;;28.27;18.02;;;;;;;11.01;71.98;100787.53;5143337;27;20112;-64
2022/11/30 03:11:53;;;;;;;34.17;19.65;;;;;;;11.02;72.49;100786.38;5153711;27;20061;-64
2022/11/30 03:14:20;;;;;;;29.20;17.35;;;;;;;11.07;71.92;100786.31;5153291;27;20054;-63
2022/11/30 03:16:49;;;;;;;35.92;21.08;;;;;;;11.13;71.65;100787.84;5153589;27;20065;-63
2022/11/30 03:19:17;;;;;;;35.05;21.77;;;;;;;11.10;71.22;100791.25;5151480;27;20066;-63
2022/11/30 03:21:44;;;;;;;40.13;24.85;;;;;;;11.12;70.78;100786.19;5153583;27;20061;-63
2022/11/30 03:24:11;;;;;;;43.13;25.27;;;;;;;11.05;70.59;100788.56;5153323;27;20053;-63
2022/11/30 03:26:38;;;;;;;39.05;24.83;;;;;;;11.02;70.54;100789.19;5153342;27;20078;-63
2022/11/30 03:29:06;;;;;;;42.50;26.70;;;;;;;11.00;70.39;100783.91;5148469;27;20051;-64
2022/11/30 03:31:33;;;;;;;35.92;22.70;;;;;;;10.93;70.69;100789.09;5157328;27;20050;-63
2022/11/30 03:34:02;;;;;;;32.80;20.92;;;;;;;10.88;70.73;100790.00;5149557;27;20058;-64
2022/11/30 03:36:30;;;;;;;30.73;20.15;;;;;;;10.86;70.45;100797.03;5156661;27;20042;-64
2022/11/30 03:38:57;;;;;;;28.20;19.15;;;;;;;10.79;70.69;100805.78;5156911;27;20055;-63
2022/11/30 03:41:25;;;;;;;27.75;17.83;;;;;;;10.72;70.66;100805.38;5157059;27;20054;-64
2022/11/30 03:43:53;;;;;;;24.80;15.35;;;;;;;10.69;70.18;100815.16;5141601;27;20392;-64
2022/11/30 03:46:20;;;;;;;25.42;15.93;;;;;;;10.61;69.86;100809.47;5156670;27;20442;-65
2022/11/30 03:48:47;;;;;;;24.33;15.77;;;;;;;10.51;69.69;100819.66;5136952;27;20051;-63
2022/11/30 03:51:16;;;;;;;25.40;17.10;;;;;;;10.50;69.78;100814.41;5115704;27;20055;-63
2022/11/30 03:53:43;;;;;;;22.05;14.57;;;;;;;10.44;69.98;100816.44;5115747;27;20052;-63
2022/11/30 03:56:13;;;;;;;22.20;15.50;;;;;;;10.36;70.18;100808.78;5156550;27;20054;-65
2022/11/30 03:58:41;;;;;;;24.75;15.98;;;;;;;10.34;70.10;100820.22;5135785;27;20047;-64
2022/11/30 04:01:11;;;;;;;25.13;16.73;;;;;;;10.30;70.27;100812.78;5135689;27;20047;-63
2022/11/30 04:03:38;;;;;;;29.38;18.73;;;;;;;10.26;70.53;100818.09;5134665;27;20062;-64
2022/11/30 04:06:07;;;;;;;33.00;18.15;;;;;;;10.20;71.40;100838.81;5147875;27;20050;-63
2022/11/30 04:08:36;;;;;;;35.60;20.02;;;;;;;10.14;71.04;100824.16;5156119;27;20086;-64
2022/11/30 04:11:05;;;;;;;36.58;21.35;;;;;;;10.20;70.79;100829.63;5156108;27;20050;-63
2022/11/30 04:13:34;;;;;;;33.47;20.10;;;;;;;10.14;71.36;100828.88;5156194;27;20529;-64
2022/11/30 04:16:02;;;;;;;35.90;21.55;;;;;;;10.05;70.55;100828.75;5152312;27;20046;-64
2022/11/30 04:18:30;;;;;;;27.30;19.83;;;;;;;10.08;70.74;100830.94;5155920;27;20043;-63
2022/11/30 04:20:59;;;;;;;28.75;19.20;;;;;;;10.02;70.51;100828.53;5155850;27;20395;-64
2022/11/30 04:23:30;;;;;;;27.13;19.03;;;;;;;9.94;71.47;100833.63;5114820;28;20051;-64
2022/11/30 04:25:59;;;;;;;31.00;21.27;;;;;;;9.91;71.39;100827.84;5152319;27;20463;-64
2022/11/30 04:28:26;;;;;;;30.50;20.55;;;;;;;9.88;71.10;100834.84;5154807;27;20123;-64
2022/11/30 04:30:54;;;;;;;31.27;20.30;;;;;;;9.96;71.73;100836.13;5154868;27;20057;-63
2022/11/30 04:33:22;;;;;;;35.05;23.17;;;;;;;9.94;72.15;100833.63;5145635;27;20070;-63
2022/11/30 04:35:53;;;;;;;36.35;22.38;;;;;;;9.98;71.08;100835.84;5136565;27;20047;-64
2022/11/30 04:38:20;;;;;;;29.63;21.45;;;;;;;9.99;71.56;100838.28;5114611;27;20492;-63
2022/11/30 04:40:47;;;;;;;34.95;22.73;;;;;;;9.89;71.29;100839.28;5113131;28;20051;-63
2022/11/30 04:43:16;;;;;;;30.73;21.73;;;;;;;9.97;70.55;100837.75;5113943;28;20051;-64
2022/11/30 04:45:44;;;;;;;31.05;20.67;;;;;;;10.00;70.58;100842.75;5145986;27;20054;-63
2022/11/30 04:48:12;;;;;;;33.15;23.20;;;;;;;9.96;70.75;100845.28;5155320;27;20055;-64
2022/11/30 04:50:39;;;;;;;33.78;23.92;;;;;;;9.91;69.77;100852.88;5155417;27;20054;-64
2022/11/30 04:53:07;;;;;;;30.75;23.02;;;;;;;9.92;71.04;100851.78;5155295;27;20372;-63
2022/11/30 04:55:36;;;;;;;34.00;21.92;;;;;;;9.98;70.48;100846.97;5153049;27;20051;-64
2022/11/30 04:58:03;;;;;;;32.00;21.70;;;;;;;9.93;70.33;100845.91;5139404;27;20487;-64
2022/11/30 05:00:33;;;;;;;33.30;24.08;;;;;;;9.97;70.59;100846.13;5134440;27;20062;-63
2022/11/30 05:03:00;;;;;;;33.65;23.05;;;;;;;9.98;70.65;100853.34;5134625;27;20100;-63
2022/11/30 05:05:27;;;;;;;29.50;20.10;;;;;;;9.97;70.67;100857.25;5145647;27;20051;-64
2022/11/30 05:07:56;;;;;;;32.00;22.52;;;;;;;9.91;70.20;100864.00;5155122;27;20050;-63
2022/11/30 05:10:25;;;;;;;29.67;20.02;;;;;;;9.94;70.28;100857.88;5154992;27;20483;-64
2022/11/30 05:12:52;;;;;;;27.88;19.88;;;;;;;10.05;70.49;100855.75;5155139;27;20054;-63
2022/11/30 05:15:20;;;;;;;31.45;21.17;;;;;;;10.08;71.08;100853.19;5152194;27;20482;-63
2022/11/30 05:17:48;;;;;;;26.48;18.23;;;;;;;10.07;71.08;100850.72;5155024;27;20046;-64
2022/11/30 05:20:16;;;;;;;28.05;21.02;;;;;;;10.12;69.94;100859.81;5154465;27;20062;-64
2022/11/30 05:22:43;;;;;;;32.70;23.45;;;;;;;10.07;70.11;100868.22;5154409;27;20054;-64
2022/11/30 05:25:10;;;;;;;36.05;22.33;;;;;;;10.04;69.26;100868.03;5149398;27;20055;-63
2022/11/30 05:27:38;;;;;;;31.50;22.00;;;;;;;10.02;69.74;100862.75;5154684;27;20050;-64
2022/11/30 05:30:06;;;;;;;36.55;24.23;;;;;;;10.03;70.20;100863.56;5147921;27;20069;-64
2022/11/30 05:32:34;;;;;;;31.08;21.42;;;;;;;10.01;69.87;100863.88;5130928;27;20055;-63
2022/11/30 05:35:03;;;;;;;30.85;23.27;;;;;;;10.05;68.92;100872.44;5133543;27;20480;-64
2022/11/30 05:37:31;;;;;;;32.97;24.48;;;;;;;10.02;68.78;100873.88;5133684;27;20407;-64
2022/11/30 05:39:58;;;;;;;33.22;23.40;;;;;;;10.03;69.30;100878.31;5145008;27;20054;-64
2022/11/30 05:42:27;;;;;;;33.80;24.38;;;;;;;9.97;68.45;100876.72;5153939;27;20047;-64
2022/11/30 05:44:54;;;;;;;34.45;24.05;;;;;;;9.99;68.98;100865.31;5153872;27;20066;-63
2022/11/30 05:47:21;;;;;;;32.47;22.27;;;;;;;10.00;68.80;100867.78;5154073;27;20414;-63
2022/11/30 05:49:48;;;;;;;29.65;21.60;;;;;;;10.02;68.22;100871.09;5152034;27;20415;-63
2022/11/30 05:52:17;;;;;;;31.50;21.50;;;;;;;10.06;68.70;100861.03;5153726;27;20066;-63
2022/11/30 05:54:44;;;;;;;32.75;23.10;;;;;;;10.01;67.80;100869.44;5149144;27;20054;-63
2022/11/30 05:57:11;;;;;;;29.48;20.60;;;;;;;9.99;68.55;100871.69;5141288;27;20057;-63
2022/11/30 05:59:39;;;;;;;29.83;20.80;;;;;;;10.01;68.75;100871.41;5133636;27;20054;-63
2022/11/30 06:02:06;;;;;;;31.63;21.60;;;;;;;10.04;67.83;100862.47;5133701;27;20058;-63
2022/11/30 06:04:34;;;;;;;29.73;20.92;;;;;;;10.00;68.49;100875.31;5131598;27;20055;-63
2022/11/30 06:07:01;;;;;;;28.08;22.30;;;;;;;9.98;68.06;100869.22;5154244;27;20053;-63
2022/11/30 06:09:30;;;;;;;31.25;22.15;;;;;;;9.99;68.07;100865.31;5120506;27;20051;-64
2022/11/30 06:11:57;;;;;;;31.30;22.07;;;;;;;9.97;68.26;100862.81;5118530;27;20508;-64
2022/11/30 06:14:24;;;;;;;27.55;19.60;;;;;;;9.94;68.22;100857.88;5121457;27;20476;-64
2022/11/30 06:16:52;;;;;;;30.10;21.38;;;;;;;9.95;68.34;100865.06;5136035;27;20048;-63
2022/11/30 06:19:19;;;;;;;28.88;20.77;;;;;;;9.93;68.25;100861.75;5116721;27;20047;-63
2022/11/30 06:21:46;;;;;;;29.40;21.27;;;;;;;9.99;68.06;100856.97;5124019;27;20054;-63
2022/11/30 06:24:13;;;;;;;27.05;19.15;;;;;;;9.98;67.45;100860.88;5128118;27;20047;-64
2022/11/30 06:26:42;;;;;;;32.20;22.60;;;;;;;9.95;67.66;100859.50;5117367;27;20055;-63
2022/11/30 06:29:09;;;;;;;30.77;21.10;;;;;;;9.90;67.50;100867.94;5128421;27;20051;-64
2022/11/30 06:31:37;;;;;;;29.23;20.88;;;;;;;9.92;68.71;100872.06;5141496;27;20043;-63
2022/11/30 06:34:04;;;;;;;30.35;21.33;;;;;;;9.91;68.92;100870.44;5116859;28;20410;-63
2022/11/30 06:36:31;;;;;;;28.38;20.52;;;;;;;9.92;68.82;100874.03;5125709;28;20050;-63
2022/11/30 06:38:58;;;;;;;30.23;21.33;;;;;;;9.91;68.05;100877.91;5119568;28;20065;-61
2022/11/30 06:41:26;;;;;;;31.55;22.70;;;;;;;9.85;69.16;100874.41;5144333;27;20486;-64
2022/11/30 06:43:54;;;;;;;29.25;20.92;;;;;;;9.90;69.11;100873.50;5139500;27;20487;-64
2022/11/30 06:46:22;;;;;;;28.67;21.00;;;;;;;9.91;68.36;100876.00;5130688;27;20055;-63
2022/11/30 06:48:50;;;;;;;28.63;20.25;;;;;;;9.88;68.76;100879.34;5137579;27;20073;-64
2022/11/30 06:51:17;;;;;;;28.83;20.98;;;;;;;9.93;67.95;100878.44;5120787;28;20400;-63
2022/11/30 06:53:45;;;;;;;30.45;20.98;;;;;;;9.92;68.55;100874.03;5111939;28;20060;-64
2022/11/30 06:56:13;;;;;;;28.60;19.25;;;;;;;9.90;67.19;100874.31;5131712;28;20062;-63
2022/11/30 06:58:41;;;;;;;28.60;19.98;;;;;;;9.90;68.07;100873.50;5140977;27;20047;-63
2022/11/30 07:01:11;;;;;;;26.73;18.83;;;;;;;9.92;67.29;100871.25;5137682;27;20073;-64
2022/11/30 07:03:38;;;;;;;28.35;19.75;;;;;;;9.87;67.37;100879.66;5125340;27;20510;-64
2022/11/30 07:06:10;;;;;;;26.63;19.80;;;;;;;9.85;67.59;100881.91;5133611;27;20399;-63
2022/11/30 07:08:38;;;;;;;27.50;19.08;;;;;;;9.83;68.25;100884.19;5144588;27;20051;-63
2022/11/30 07:11:06;;;;;;;27.65;19.45;;;;;;;9.83;68.00;100889.75;5138128;27;20069;-63
2022/11/30 07:13:35;;;;;;;27.00;18.90;;;;;;;9.96;66.89;100891.78;5153466;27;20046;-63
2022/11/30 07:16:04;;;;;;;30.17;21.73;;;;;;;9.88;67.24;100892.44;5153936;27;20051;-63
2022/11/30 07:18:34;;;;;;;27.95;20.15;;;;;;;9.80;67.63;100896.72;5152296;27;20051;-63
2022/11/30 07:21:02;;;;;;;28.63;19.85;;;;;;;9.86;68.10;100895.53;5133098;27;20039;-62
2022/11/30 07:26:15;;;;;;;27.80;19.75;;;;;;;9.85;68.02;100895.81;5146349;27;20058;-62
2022/11/30 07:28:44;;;;;;;27.42;18.90;;;;;;;9.87;67.68;100911.09;5126050;27;20055;-62
2022/11/30 07:31:18;;;;;;;27.00;19.48;;;;;;;9.92;68.43;100910.19;5117896;27;20051;-63
2022/11/30 07:33:47;;;;;;;28.95;20.33;;;;;;;9.92;67.49;100905.47;5131607;27;20057;-63
2022/11/30 07:36:14;;;;;;;28.92;20.17;;;;;;;9.92;68.24;100904.63;5136307;27;20061;-63
2022/11/30 07:38:42;;;;;;;29.30;20.63;;;;;;;9.91;67.40;100919.66;5133886;27;20051;-64
2022/11/30 07:41:09;;;;;;;30.75;21.60;;;;;;;9.92;68.20;100918.56;5131293;27;20403;-62
2022/11/30 07:43:36;;;;;;;28.20;19.95;;;;;;;9.94;67.32;100913.50;5126423;27;20060;-63
2022/11/30 07:46:04;;;;;;;31.58;21.05;;;;;;;9.93;67.23;100920.19;5133540;27;20555;-62
2022/11/30 07:48:35;;;;;;;29.15;20.60;;;;;;;9.92;67.93;100924.13;5125044;27;20043;-66
2022/11/30 07:51:04;;;;;;;26.98;18.42;;;;;;;10.00;67.28;100926.22;5130244;27;20051;-66
2022/11/30 07:53:32;;;;;;;29.85;20.48;;;;;;;10.05;68.12;100933.69;5128437;27;20066;-67
2022/11/30 07:56:04;;;;;;;27.33;20.27;;;;;;;10.09;67.70;100932.78;5130871;27;20077;-67
2022/11/30 07:58:32;;;;;;;27.73;19.30;;;;;;;10.18;66.23;100932.94;5128621;27;20499;-67
2022/11/30 08:01:03;;;;;;;26.63;18.70;;;;;;;10.26;66.99;100937.00;5131077;27;20046;-66
2022/11/30 08:03:30;;;;;;;30.65;21.10;;;;;;;10.25;67.07;100936.19;5132408;27;20051;-66
2022/11/30 08:06:01;;;;;;;28.88;20.77;;;;;;;10.35;66.31;100935.22;5129898;27;20484;-66
2022/11/30 08:08:31;;;;;;;36.15;23.10;;;;;;;10.32;66.50;100933.88;5129724;27;20483;-66
2022/11/30 08:10:59;;;;;;;35.25;22.52;;;;;;;10.38;66.05;100945.75;5124604;27;20058;-66
2022/11/30 08:13:27;;;;;;;35.05;22.67;;;;;;;10.43;66.14;100940.09;5128183;27;20062;-66
2022/11/30 08:15:54;;;;;;;37.40;24.13;;;;;;;10.43;65.64;100942.06;5124987;27;20047;-66
2022/11/30 08:18:27;;;;;;;37.63;23.80;;;;;;;10.43;65.73;100937.31;5122674;27;20054;-66
2022/11/30 08:20:58;;;;;;;35.45;24.42;;;;;;;10.39;66.29;100947.41;5128589;27;20051;-66
2022/11/30 08:23:26;;;;;;;34.50;21.95;;;;;;;10.35;66.28;100935.22;5128190;27;20054;-66
2022/11/30 08:25:54;;;;;;;40.63;26.40;;;;;;;10.36;66.77;100948.03;5129275;27;20058;-66
2022/11/30 08:28:22;;;;;;;39.30;24.77;;;;;;;10.42;66.05;100940.44;5124454;27;20051;-66
2022/11/30 08:30:49;;;;;;;44.47;27.02;;;;;;;10.38;66.68;100942.97;5129545;27;20062;-66
2022/11/30 08:33:16;;;;;;;41.50;25.05;;;;;;;10.41;66.38;100941.53;5128683;27;20054;-66
2022/11/30 08:35:43;;;;;;;49.15;29.02;;;;;;;10.41;66.31;100945.16;5127022;27;20058;-66
2022/11/30 08:38:11;;;;;;;47.42;28.42;;;;;;;10.49;66.21;100952.81;5123391;27;20047;-66
2022/11/30 08:40:38;;;;;;;53.78;31.42;;;;;;;10.48;65.96;100942.81;5126827;27;20050;-66
2022/11/30 08:43:06;;;;;;;47.00;27.70;;;;;;;10.52;66.24;100952.22;5126907;27;20063;-66
2022/11/30 08:45:34;;;;;;;45.50;27.35;;;;;;;10.53;66.36;100953.06;5129476;27;20396;-66
2022/11/30 08:48:01;;;;;;;46.97;28.52;;;;;;;10.47;66.41;100957.88;5127332;27;20050;-66
2022/11/30 08:50:28;;;;;;;52.25;30.38;;;;;;;10.47;66.03;100955.06;5124482;27;20062;-66
2022/11/30 08:52:56;;;;;;;43.90;28.65;;;;;;;10.52;65.61;100955.03;5126933;27;20415;-66
2022/11/30 08:55:23;;;;;;;47.00;28.08;;;;;;;10.48;65.74;100953.97;5126692;27;20058;-66
2022/11/30 08:57:50;;;;;;;43.22;27.63;;;;;;;10.54;66.06;100955.53;5126605;27;20058;-66
2022/11/30 09:00:20;;;;;;;46.33;27.98;;;;;;;10.56;65.75;100958.84;5127518;27;20078;-66
2022/11/30 09:02:47;;;;;;;43.72;27.27;;;;;;;10.52;66.35;100966.16;5127862;27;20423;-66
2022/11/30 09:05:15;;;;;;;44.05;27.75;;;;;;;10.51;65.87;100975.63;5126871;27;20506;-65
2022/11/30 09:07:42;;;;;;;42.08;26.25;;;;;;;10.56;66.17;100972.78;5127049;27;20415;-66
2022/11/30 09:10:10;;;;;;;42.40;27.00;;;;;;;10.59;65.95;100976.09;5125647;27;20384;-66
2022/11/30 09:12:39;;;;;;;42.80;27.50;;;;;;;10.59;65.62;100978.88;5129512;27;20059;-67
2022/11/30 09:15:08;;;;;;;43.75;27.80;;;;;;;10.69;65.54;100984.31;5126465;27;20415;-66
2022/11/30 09:17:37;;;;;;;42.60;27.40;;;;;;;10.65;65.67;100977.69;5123242;27;20059;-66
2022/11/30 09:20:06;;;;;;;43.92;26.60;;;;;;;10.72;65.24;100978.09;5132915;27;20500;-66
2022/11/30 09:22:33;;;;;;;43.33;27.48;;;;;;;10.74;65.66;100985.03;5126129;27;21512;-66
2022/11/30 09:25:01;;;;;;;49.17;30.67;;;;;;;10.85;65.34;100985.69;5130339;27;20050;-66
2022/11/30 09:27:31;;;;;;;43.72;25.77;;;;;;;10.90;65.46;100977.25;5125078;27;20055;-66
2022/11/30 09:29:58;;;;;;;47.72;28.05;;;;;;;10.82;65.51;100986.31;5128987;27;20553;-66
2022/11/30 09:32:25;;;;;;;45.80;29.48;;;;;;;10.83;65.18;100979.59;5124459;27;20070;-66
2022/11/30 09:34:54;;;;;;;45.80;29.42;;;;;;;10.89;65.21;100980.34;5128453;27;20059;-66
2022/11/30 09:37:22;;;;;;;47.50;29.38;;;;;;;10.87;65.23;100982.59;5123509;27;20059;-66
2022/11/30 09:39:49;;;;;;;48.65;28.75;;;;;;;10.92;65.14;100983.34;5128341;27;20486;-66
2022/11/30 09:42:32;;;;;;;46.95;30.05;;;;;;;10.92;64.86;100988.09;5127235;27;20074;-66
2022/11/30 09:45:03;;;;;;;46.58;30.23;;;;;;;10.88;65.00;100981.47;5123788;27;20066;-67
2022/11/30 09:47:47;;;;;;;50.58;31.30;;;;;;;10.89;65.06;100983.94;5123836;27;20059;-66
2022/11/30 09:50:20;;;;;;;46.40;29.08;;;;;;;10.89;65.72;100980.34;5123163;27;20479;-65
2022/11/30 09:52:52;;;;;;;46.45;30.23;;;;;;;10.90;64.65;100979.22;5122152;27;20051;-65
2022/11/30 09:55:27;;;;;;;43.30;28.02;;;;;;;10.94;64.77;100978.31;5121981;27;20058;-66
2022/11/30 09:57:57;;;;;;;44.15;28.58;;;;;;;10.90;64.93;100982.00;5122243;27;20049;-67
2022/11/30 10:00:25;;;;;;;41.85;29.00;;;;;;;10.88;64.86;100982.31;5122461;27;20044;-65
2022/11/30 10:02:54;;;;;;;43.28;27.77;;;;;;;10.91;64.93;100983.66;5119920;27;20055;-66
2022/11/30 10:05:26;;;;;;;40.38;26.23;;;;;;;10.95;64.91;100979.94;5124063;27;20062;-65
2022/11/30 10:08:11;;;;;;;41.72;27.05;;;;;;;10.94;64.52;100981.09;5127799;27;20051;-66
2022/11/30 10:10:42;;;;;;;39.67;26.40;;;;;;;10.96;64.46;100977.97;5124585;27;20053;-66
2022/11/30 10:13:23;;;;;;;41.38;25.73;;;;;;;11.03;63.86;100983.19;5128605;27;20054;-66
2022/11/30 10:16:04;;;;;;;36.70;25.50;;;;;;;10.94;64.42;100969.94;5121564;27;20055;-66
2022/11/30 10:18:41;;;;;;;37.35;25.70;;;;;;;10.94;64.78;100975.53;5121854;27;20051;-66
2022/11/30 10:21:20;;;;;;;38.50;26.88;;;;;;;10.91;64.95;100978.91;5116887;27;20055;-66
2022/11/30 10:24:00;;;;;;;33.10;22.30;;;;;;;10.92;65.21;100977.78;5120614;27;20055;-66
2022/11/30 10:26:32;;;;;;;;;;;;;;;10.91;65.44;100981.69;5123601;27;20058;-66
2022/11/30 10:29:06;;;;;;;35.88;24.60;;;;;;;10.86;65.58;100984.56;5118172;27;19924;-66
2022/11/30 10:31:35;;;;;;;31.30;21.45;;;;;;;10.96;65.53;100973.25;5119483;27;20062;-65
2022/11/30 10:34:13;;;;;;;37.25;24.65;;;;;;;10.99;65.29;100982.13;5125022;28;20426;-66
2022/11/30 10:36:45;;;;;;;35.40;24.02;;;;;;;10.99;65.26;100982.13;5124557;27;20070;-66
2022/11/30 10:39:20;;;;;;;39.13;24.45;;;;;;;10.85;65.59;100980.09;5127945;27;20484;-66
2022/11/30 10:41:51;;;;;;;38.42;24.55;;;;;;;10.94;65.56;100974.66;5127006;27;20043;-66
2022/11/30 10:44:23;;;;;;;37.92;24.52;;;;;;;11.01;65.16;100977.09;5123246;27;20538;-66
2022/11/30 10:46:56;;;;;;;38.72;25.50;;;;;;;11.00;65.30;100975.41;5127334;27;20051;-66
2022/11/30 10:49:28;;;;;;;38.13;24.52;;;;;;;10.97;65.59;100966.53;5129616;27;20070;-66
2022/11/30 10:52:01;;;;;;;32.75;21.98;;;;;;;11.00;65.51;100970.66;5129741;27;20058;-66
2022/11/30 10:54:30;;;;;;;30.83;21.83;;;;;;;10.99;65.31;100959.84;5127782;27;20073;-66
2022/11/30 10:56:59;;;;;;;26.97;20.40;;;;;;;11.06;65.23;100963.88;5128846;27;20059;-66
2022/11/30 10:59:36;;;;;;;30.73;21.50;;;;;;;11.03;65.37;100966.47;5128388;27;20504;-65
2022/11/30 11:02:23;;;;;;;26.23;19.70;;;;;;;11.06;65.60;100954.69;5130327;27;20071;-65
2022/11/30 11:05:14;;;;;;;29.75;20.17;;;;;;;11.08;65.42;100950.44;5126534;27;20062;-67
2022/11/30 11:07:50;;;;;;;27.95;19.20;;;;;;;11.09;65.13;100954.09;5129125;27;20065;-67
2022/11/30 11:10:19;;;;;;;30.80;22.95;;;;;;;11.09;65.15;100962.44;5125793;27;20047;-67
2022/11/30 11:12:50;;;;;;;27.00;19.95;;;;;;;11.10;65.11;100955.72;5126862;27;20058;-67
2022/11/30 11:15:22;;;;;;;26.40;20.05;;;;;;;11.07;65.77;100961.94;5122363;27;20597;-67
2022/11/30 11:17:50;;;;;;;24.20;18.13;;;;;;;11.14;64.59;100957.59;5128015;27;20526;-67
2022/11/30 11:20:32;;;;;;;24.48;17.95;;;;;;;11.16;64.62;100948.94;5127114;27;20479;-67
2022/11/30 11:23:01;;;;;;;29.67;19.85;;;;;;;11.07;65.66;100962.75;5129512;27;20411;-67
2022/11/30 11:25:34;;;;;;;25.65;19.30;;;;;;;11.07;65.32;100961.94;5128957;27;20055;-67